TimeMST,TemperatureF,Dew PointF,Humidity,Sea Level PressureIn,VisibilityMPH,Wind Direction,Wind SpeedMPH,Gust SpeedMPH,PrecipitationIn,Events,Conditions,WindDirDegrees,DateUTC
12:52 AM,34.0,18.0,52,29.93,10.0,WNW,9.2,-,N/A,,Clear,300,2013-01-19 07:52:00
1:52 AM,41.0,18.0,40,29.95,10.0,NW,15.0,-,N/A,,Clear,310,2013-01-19 08:52:00
2:52 AM,30.0,17.1,59,29.99,10.0,WNW,9.2,-,N/A,,Clear,300,2013-01-19 09:52:00
3:52 AM,32.0,18.0,56,30.00,10.0,WNW,11.5,-,N/A,,Clear,290,2013-01-19 10:52:00
4:52 AM,34.0,18.0,52,30.02,10.0,NW,9.2,19.6,N/A,,Clear,320,2013-01-19 11:52:00
5:52 AM,33.1,18.0,54,30.06,10.0,NW,9.2,-,N/A,,Clear,320,2013-01-19 12:52:00
6:52 AM,35.1,18.0,50,30.07,10.0,NW,11.5,-,N/A,,Clear,320,2013-01-19 13:52:00
7:52 AM,39.0,19.0,45,30.09,10.0,NNW,16.1,-,N/A,,Clear,340,2013-01-19 14:52:00
8:52 AM,42.1,19.9,41,30.12,10.0,NNW,17.3,-,N/A,,Clear,340,2013-01-19 15:52:00
9:52 AM,43.0,21.0,42,30.15,10.0,North,18.4,26.5,N/A,,Clear,360,2013-01-19 16:52:00
10:52 AM,43.0,21.9,43,30.19,10.0,North,24.2,33.4,N/A,,Clear,360,2013-01-19 17:52:00
11:52 AM,43.0,23.0,45,30.19,10.0,NNW,23.0,27.6,N/A,,Clear,340,2013-01-19 18:52:00
12:52 PM,43.0,23.0,45,30.20,10.0,North,25.3,34.5,N/A,,Clear,350,2013-01-19 19:52:00
1:52 PM,42.8,23.0,46,30.14,10.0,North,27.6,36.8,N/A,,Clear,350,2013-01-19 20:52:00
2:52 PM,39.9,23.0,51,30.25,10.0,North,20.7,26.5,N/A,,Clear,10,2013-01-19 21:52:00
3:52 PM,37.0,21.9,54,30.26,10.0,North,23.0,-,N/A,,Clear,360,2013-01-19 22:52:00
4:52 PM,33.1,21.9,64,30.28,10.0,North,17.3,-,N/A,,Clear,10,2013-01-19 23:52:00
5:52 PM,30.0,19.9,66,30.30,10.0,North,11.5,-,N/A,,Clear,360,2013-01-20 00:52:00
6:52 PM,26.1,18.0,71,30.31,10.0,NNE,5.8,-,N/A,,Clear,30,2013-01-20 01:52:00
7:52 PM,26.1,19.9,78,30.31,10.0,SE,4.6,-,N/A,,Clear,130,2013-01-20 02:52:00
8:52 PM,23.0,19.0,85,30.31,10.0,SSE,5.8,-,N/A,,Clear,150,2013-01-20 03:52:00
9:52 PM,23.0,18.0,81,30.27,10.0,SE,9.2,-,N/A,,Partly Cloudy,130,2013-01-20 04:52:00
10:52 PM,19.9,17.1,89,30.24,10.0,SE,9.2,-,N/A,,Clear,130,2013-01-20 05:52:00
11:52 PM,21.0,15.1,78,30.21,10.0,SE,11.5,-,N/A,,Clear,130,2013-01-20 06:52:00